FLUGWETTER MÜNCHEN AIRPORT

[source: ADDS]
METAR
EDDM 251150Z 36006KT 290V050 9999 FEW040 SCT070 18/10 Q1022 NOSIG =
TAF
TAF EDDM 251100Z 2512/2618 34005KT 9999 SCT040 BECMG 2517/2519 VRB03KT BECMG 2608/2610 07005KT =
SR / SS: 03:23 / 18:59 UTC (Tag 2017-05-25)

QR-Code dieser Seite

QR-Code dieser Seite